createdAt,value
2018-11-07T00:01:59.389Z,100129.08
2018-11-07T00:10:20.397Z,100143.31
2018-11-07T00:18:41.378Z,100147.02
2018-11-07T00:27:02.373Z,100142.19
2018-11-07T00:35:23.385Z,100145.10
2018-11-07T00:43:44.400Z,100145.73
2018-11-07T00:52:05.381Z,100149.33
2018-11-07T01:00:26.431Z,100157.88
2018-11-07T01:08:47.453Z,100157.67
2018-11-07T01:17:08.442Z,100158.84
2018-11-07T01:25:29.418Z,100152.55
2018-11-07T01:33:50.405Z,100149.98
2018-11-07T01:42:11.490Z,100147.59
2018-11-07T01:50:32.433Z,100142.52
2018-11-07T01:58:53.438Z,100151.16
2018-11-07T02:07:14.446Z,100137.19
2018-11-07T02:15:35.450Z,100133.91
2018-11-07T02:23:56.489Z,100150.01
2018-11-07T02:32:17.487Z,100160.75
2018-11-07T02:40:38.568Z,100159.03
2018-11-07T02:48:59.550Z,100165.06
2018-11-07T02:57:20.554Z,100164.97
2018-11-07T03:05:41.572Z,100158.11
2018-11-07T03:14:02.608Z,100163.70
2018-11-07T03:22:23.657Z,100168.11
2018-11-07T03:30:44.661Z,100160.69
2018-11-07T03:39:05.665Z,100170.80
2018-11-07T03:47:26.668Z,100166.30
2018-11-07T03:55:47.655Z,100157.55
2018-11-07T04:04:08.675Z,100157.16
2018-11-07T04:12:29.773Z,100153.72
2018-11-07T04:20:50.773Z,100152.48
2018-11-07T04:29:11.760Z,100149.67
2018-11-07T04:37:32.820Z,100136.42
2018-11-07T04:45:53.905Z,100138.56
2018-11-07T04:54:14.909Z,100153.30
2018-11-07T05:02:35.914Z,100136.44
2018-11-07T05:10:57.026Z,100138.26
2018-11-07T05:19:18.033Z,100133.42
2018-11-07T05:27:39.033Z,100157.69
2018-11-07T05:36:00.093Z,100168.17
2018-11-07T05:44:21.074Z,100162.23
2018-11-07T05:52:42.095Z,100171.95
2018-11-07T06:01:03.102Z,100175.47
2018-11-07T06:09:24.130Z,100172.95
2018-11-07T06:17:45.134Z,100186.41
2018-11-07T06:26:06.256Z,100184.02
2018-11-07T06:34:27.276Z,100181.84
2018-11-07T06:42:48.285Z,100190.28
2018-11-07T06:51:09.282Z,100181.84
2018-11-07T06:59:30.289Z,100195.53
2018-11-07T07:07:51.305Z,100208.27
2018-11-07T07:16:12.313Z,100203.73
2018-11-07T07:24:33.337Z,100204.09
2018-11-07T07:32:54.450Z,100205.73
2018-11-07T07:41:15.398Z,100205.55
2018-11-07T07:49:36.401Z,100192.91
2018-11-07T07:57:57.409Z,100194.06
2018-11-07T08:06:18.417Z,100202.59
2018-11-07T08:14:39.420Z,100201.64
2018-11-07T08:23:00.421Z,100212.32
2018-11-07T08:31:21.447Z,100213.10
2018-11-07T08:39:42.450Z,100215.43
2018-11-07T08:48:03.508Z,100214.25
2018-11-07T08:56:24.490Z,100209.98
2018-11-07T09:04:45.505Z,100210.88
2018-11-07T09:13:06.505Z,100201.54
2018-11-07T09:21:27.524Z,100185.64
2018-11-07T09:29:48.529Z,100206.83
2018-11-07T09:38:09.549Z,100190.78
2018-11-07T09:46:30.554Z,100201.91
2018-11-07T09:54:51.621Z,100208.97
2018-11-07T10:03:12.642Z,100203.28
2018-11-07T10:11:33.668Z,100198.02
2018-11-07T10:19:54.692Z,100191.05
2018-11-07T10:28:15.768Z,100191.60
2018-11-07T10:36:36.716Z,100188.40
2018-11-07T10:44:57.740Z,100179.59
2018-11-07T10:53:18.741Z,100182.77
2018-11-07T11:01:39.763Z,100171.38
2018-11-07T11:10:00.766Z,100172.91
2018-11-07T11:18:21.865Z,100165.55
2018-11-07T11:26:42.886Z,100172.21
2018-11-07T11:35:03.959Z,100170.53
2018-11-07T11:43:24.902Z,100169.22
2018-11-07T11:51:45.897Z,100171.72
2018-11-07T12:00:07.293Z,100169.11
2018-11-07T12:08:28.101Z,100171.17
2018-11-07T12:16:49.093Z,100156.63
2018-11-07T12:25:10.121Z,100160.47
2018-11-07T12:33:31.145Z,100155.48
2018-11-07T12:41:52.130Z,100163.17
2018-11-07T12:50:13.257Z,100158.03
2018-11-07T12:58:34.181Z,100158.06
2018-11-07T13:06:55.184Z,100141.95
2018-11-07T13:15:16.273Z,100146.23
2018-11-07T13:23:37.297Z,100157.34
2018-11-07T13:31:58.326Z,100158.83
2018-11-07T13:40:19.355Z,100155.37
2018-11-07T13:48:40.362Z,100159.64
2018-11-07T13:57:01.401Z,100162.25
2018-11-07T14:05:22.499Z,100184.91
2018-11-07T14:13:43.436Z,100192.25
2018-11-07T14:22:04.534Z,100201.15
2018-11-07T14:30:25.542Z,100219.59
2018-11-07T14:38:46.725Z,100237.98
2018-11-07T14:47:07.652Z,100256.05
2018-11-07T14:55:28.635Z,100269.22
2018-11-07T15:03:49.627Z,100268.75
2018-11-07T15:12:10.670Z,100275.51
2018-11-07T15:20:31.692Z,100280.61
2018-11-07T15:28:52.762Z,100283.23
2018-11-07T15:37:13.755Z,100290.27
2018-11-07T15:45:34.741Z,100285.20
2018-11-07T15:53:55.817Z,100295.70
2018-11-07T16:02:16.824Z,100296.13
2018-11-07T16:10:37.848Z,100300.38
2018-11-07T16:18:58.883Z,100316.13
2018-11-07T16:27:19.909Z,100330.41
2018-11-07T16:35:41.015Z,100347.01
2018-11-07T16:44:02.020Z,100349.86
2018-11-07T16:52:23.024Z,100361.23
2018-11-07T17:00:44.046Z,100371.91
2018-11-07T17:09:05.051Z,100375.59
2018-11-07T17:17:26.057Z,100374.24
2018-11-07T17:25:47.080Z,100394.98
2018-11-07T17:34:08.068Z,100396.61
2018-11-07T17:42:29.088Z,100414.54
2018-11-07T17:50:50.106Z,100413.53
2018-11-07T17:59:11.364Z,100415.20
2018-11-07T18:07:32.504Z,100422.42
2018-11-07T18:15:53.867Z,100429.72
2018-11-07T18:24:15.001Z,100435.34
2018-11-07T18:32:37.182Z,100444.27
2018-11-07T18:40:58.772Z,100457.78
2018-11-07T18:49:20.043Z,100479.96
2018-11-07T18:57:41.136Z,100484.43
2018-11-07T19:06:02.200Z,100496.62
2018-11-07T19:14:23.274Z,100508.30
2018-11-07T19:22:44.352Z,100504.19
2018-11-07T19:31:05.627Z,100509.47
2018-11-07T19:39:26.706Z,100521.03
2018-11-07T19:47:47.746Z,100526.80
2018-11-07T19:56:08.899Z,100546.72
2018-11-07T20:04:29.947Z,100553.84
2018-11-07T20:12:51.159Z,100566.47
2018-11-07T20:21:12.209Z,100585.30
2018-11-07T20:29:33.191Z,100593.29
2018-11-07T20:37:54.204Z,100599.73
2018-11-07T20:46:15.227Z,100608.80
2018-11-07T20:54:36.283Z,100615.81
2018-11-07T21:02:57.281Z,100621.99
2018-11-07T21:11:18.299Z,100620.77
2018-11-07T21:19:39.282Z,100629.14
2018-11-07T21:28:00.301Z,100632.45
2018-11-07T21:36:21.313Z,100636.00
2018-11-07T21:44:42.374Z,100639.91
2018-11-07T21:53:03.387Z,100651.76
2018-11-07T22:01:24.400Z,100666.39
2018-11-07T22:09:45.420Z,100668.63
2018-11-07T22:18:06.401Z,100690.09
2018-11-07T22:26:27.445Z,100692.78
2018-11-07T22:34:48.475Z,100686.41
2018-11-07T22:43:09.505Z,100698.08
2018-11-07T22:51:30.593Z,100710.31
2018-11-07T22:59:51.587Z,100726.52
2018-11-07T23:08:12.590Z,100739.68
2018-11-07T23:16:33.586Z,100752.39
2018-11-07T23:24:54.584Z,100758.03
2018-11-07T23:33:15.588Z,100757.81
2018-11-07T23:41:36.585Z,100756.40
2018-11-07T23:49:57.616Z,100768.59
2018-11-07T23:58:18.621Z,100784.85
